sensor_id;sensor_type;location;lat;lon;timestamp;pressure;altitude;pressure_sealevel;temperature;humidity
54588;BME280;40484;50.198;19.576;2023-02-26T00:01:13;100302.39;;;4.17;57.64
54588;BME280;40484;50.198;19.576;2023-02-26T00:06:15;100310.66;;;4.07;57.56
54588;BME280;40484;50.198;19.576;2023-02-26T00:11:17;100312.98;;;4.09;57.33
54588;BME280;40484;50.198;19.576;2023-02-26T00:21:29;100322.09;;;4.01;57.62
54588;BME280;40484;50.198;19.576;2023-02-26T00:26:32;100336.56;;;3.95;57.47
54588;BME280;40484;50.198;19.576;2023-02-26T00:31:34;100341.85;;;3.91;57.64
54588;BME280;40484;50.198;19.576;2023-02-26T00:42:25;100370.86;;;3.83;57.84
54588;BME280;40484;50.198;19.576;2023-02-26T00:47:39;100371.93;;;3.75;57.73
54588;BME280;40484;50.198;19.576;2023-02-26T00:57:46;100390.36;;;3.91;57.30
54588;BME280;40484;50.198;19.576;2023-02-26T01:02:48;100394.01;;;4.09;56.73
54588;BME280;40484;50.198;19.576;2023-02-26T01:08:04;100397.19;;;4.25;56.32
54588;BME280;40484;50.198;19.576;2023-02-26T01:13:06;100403.01;;;4.41;56.10
54588;BME280;40484;50.198;19.576;2023-02-26T01:18:13;100387.70;;;4.48;55.81
54588;BME280;40484;50.198;19.576;2023-02-26T01:23:17;100389.22;;;4.28;55.89
54588;BME280;40484;50.198;19.576;2023-02-26T01:28:18;100381.10;;;4.13;56.27
54588;BME280;40484;50.198;19.576;2023-02-26T01:33:29;100368.62;;;4.05;56.35
54588;BME280;40484;50.198;19.576;2023-02-26T01:38:51;100358.16;;;3.95;56.54
54588;BME280;40484;50.198;19.576;2023-02-26T01:44:26;100359.98;;;3.94;56.67
54588;BME280;40484;50.198;19.576;2023-02-26T01:49:28;100389.30;;;3.80;57.28
54588;BME280;40484;50.198;19.576;2023-02-26T01:54:32;100403.59;;;3.75;57.44
54588;BME280;40484;50.198;19.576;2023-02-26T01:59:38;100418.09;;;3.80;57.22
54588;BME280;40484;50.198;19.576;2023-02-26T02:04:40;100425.37;;;3.74;57.25
54588;BME280;40484;50.198;19.576;2023-02-26T02:09:42;100430.34;;;3.87;57.08
54588;BME280;40484;50.198;19.576;2023-02-26T02:14:52;100437.13;;;3.75;57.21
54588;BME280;40484;50.198;19.576;2023-02-26T02:25:31;100451.39;;;3.69;57.15
54588;BME280;40484;50.198;19.576;2023-02-26T02:36:52;100469.33;;;3.63;56.87
54588;BME280;40484;50.198;19.576;2023-02-26T02:42:02;100483.52;;;3.64;56.62
54588;BME280;40484;50.198;19.576;2023-02-26T02:47:03;100493.05;;;3.48;56.59
54588;BME280;40484;50.198;19.576;2023-02-26T02:52:12;100489.63;;;3.52;56.34
54588;BME280;40484;50.198;19.576;2023-02-26T02:57:22;100498.59;;;3.47;56.10
54588;BME280;40484;50.198;19.576;2023-02-26T03:07:49;100488.17;;;3.25;56.47
54588;BME280;40484;50.198;19.576;2023-02-26T03:12:46;100494.07;;;3.13;57.12
54588;BME280;40484;50.198;19.576;2023-02-26T03:18:05;100498.38;;;3.05;56.93
54588;BME280;40484;50.198;19.576;2023-02-26T03:23:33;100524.56;;;3.09;57.09
54588;BME280;40484;50.198;19.576;2023-02-26T03:28:37;100526.97;;;3.23;56.50
54588;BME280;40484;50.198;19.576;2023-02-26T03:34:00;100544.21;;;3.15;56.45
54588;BME280;40484;50.198;19.576;2023-02-26T03:44:19;100568.40;;;2.89;54.71
54588;BME280;40484;50.198;19.576;2023-02-26T03:49:35;100572.06;;;2.95;54.33
54588;BME280;40484;50.198;19.576;2023-02-26T03:54:47;100575.29;;;2.94;53.87
54588;BME280;40484;50.198;19.576;2023-02-26T03:59:45;100574.32;;;2.96;53.24
54588;BME280;40484;50.198;19.576;2023-02-26T04:05:07;100587.45;;;2.95;52.71
54588;BME280;40484;50.198;19.576;2023-02-26T04:10:40;100597.70;;;3.26;52.33
54588;BME280;40484;50.198;19.576;2023-02-26T04:15:42;100600.09;;;3.40;51.79
54588;BME280;40484;50.198;19.576;2023-02-26T04:20:43;100606.48;;;3.49;51.20
54588;BME280;40484;50.198;19.576;2023-02-26T04:25:45;100623.91;;;3.40;50.94
54588;BME280;40484;50.198;19.576;2023-02-26T04:30:47;100625.47;;;3.36;50.78
54588;BME280;40484;50.198;19.576;2023-02-26T04:35:48;100627.91;;;3.44;50.91
54588;BME280;40484;50.198;19.576;2023-02-26T04:40:50;100651.50;;;3.41;51.00
54588;BME280;40484;50.198;19.576;2023-02-26T04:45:52;100645.38;;;3.35;51.46
54588;BME280;40484;50.198;19.576;2023-02-26T04:50:54;100652.36;;;3.28;51.94
54588;BME280;40484;50.198;19.576;2023-02-26T04:55:55;100660.59;;;3.20;52.44
54588;BME280;40484;50.198;19.576;2023-02-26T05:00:57;100673.80;;;3.07;52.92
54588;BME280;40484;50.198;19.576;2023-02-26T05:05:59;100668.04;;;3.15;52.67
54588;BME280;40484;50.198;19.576;2023-02-26T05:11:00;100680.12;;;3.06;52.56
54588;BME280;40484;50.198;19.576;2023-02-26T05:16:02;100689.03;;;3.09;52.79
54588;BME280;40484;50.198;19.576;2023-02-26T05:21:04;100701.49;;;2.99;52.85
54588;BME280;40484;50.198;19.576;2023-02-26T05:26:05;100707.88;;;3.00;52.61
54588;BME280;40484;50.198;19.576;2023-02-26T05:31:07;100713.09;;;3.03;52.84
54588;BME280;40484;50.198;19.576;2023-02-26T05:36:09;100725.18;;;3.02;52.67
54588;BME280;40484;50.198;19.576;2023-02-26T05:41:10;100736.27;;;3.02;52.63
54588;BME280;40484;50.198;19.576;2023-02-26T05:46:12;100742.30;;;2.91;52.94
54588;BME280;40484;50.198;19.576;2023-02-26T05:51:40;100764.39;;;2.80;53.29
54588;BME280;40484;50.198;19.576;2023-02-26T05:56:42;100767.28;;;2.94;52.99
54588;BME280;40484;50.198;19.576;2023-02-26T06:01:44;100799.18;;;2.91;53.25
54588;BME280;40484;50.198;19.576;2023-02-26T06:06:46;100800.39;;;2.90;53.17
54588;BME280;40484;50.198;19.576;2023-02-26T06:11:47;100804.01;;;3.01;52.92
54588;BME280;40484;50.198;19.576;2023-02-26T06:16:49;100809.16;;;3.02;53.13
54588;BME280;40484;50.198;19.576;2023-02-26T06:21:50;100814.46;;;3.07;53.02
54588;BME280;40484;50.198;19.576;2023-02-26T06:26:52;100825.69;;;3.05;53.15
54588;BME280;40484;50.198;19.576;2023-02-26T06:31:53;100838.56;;;3.17;52.74
54588;BME280;40484;50.198;19.576;2023-02-26T06:36:55;100833.37;;;3.37;52.20
54588;BME280;40484;50.198;19.576;2023-02-26T06:41:56;100837.79;;;3.32;51.87
54588;BME280;40484;50.198;19.576;2023-02-26T06:46:58;100844.05;;;3.08;52.26
54588;BME280;40484;50.198;19.576;2023-02-26T06:52:00;100854.67;;;2.99;52.72
54588;BME280;40484;50.198;19.576;2023-02-26T06:57:01;100867.28;;;2.89;52.99
54588;BME280;40484;50.198;19.576;2023-02-26T07:02:03;100874.11;;;2.52;52.83
54588;BME280;40484;50.198;19.576;2023-02-26T07:07:04;100871.66;;;2.78;52.87
54588;BME280;40484;50.198;19.576;2023-02-26T07:12:06;100874.93;;;2.91;53.78
54588;BME280;40484;50.198;19.576;2023-02-26T07:17:08;100885.00;;;2.85;54.12
54588;BME280;40484;50.198;19.576;2023-02-26T07:22:09;100896.79;;;2.81;54.89
54588;BME280;40484;50.198;19.576;2023-02-26T07:27:11;100899.38;;;2.66;55.08
54588;BME280;40484;50.198;19.576;2023-02-26T07:32:13;100904.19;;;2.50;55.52
54588;BME280;40484;50.198;19.576;2023-02-26T07:37:14;100915.26;;;2.43;55.51
54588;BME280;40484;50.198;19.576;2023-02-26T07:42:40;100915.64;;;2.54;55.73
54588;BME280;40484;50.198;19.576;2023-02-26T07:47:42;100921.37;;;2.79;55.21
54588;BME280;40484;50.198;19.576;2023-02-26T07:52:43;100912.13;;;2.92;54.30
54588;BME280;40484;50.198;19.576;2023-02-26T07:57:46;100911.65;;;2.89;53.43
54588;BME280;40484;50.198;19.576;2023-02-26T08:02:48;100942.97;;;2.56;50.71
54588;BME280;40484;50.198;19.576;2023-02-26T08:07:49;100941.96;;;2.09;50.50
54588;BME280;40484;50.198;19.576;2023-02-26T08:12:51;100950.60;;;1.92;51.01
54588;BME280;40484;50.198;19.576;2023-02-26T08:17:53;100954.20;;;2.24;50.46
54588;BME280;40484;50.198;19.576;2023-02-26T08:22:54;100961.23;;;2.50;49.31
54588;BME280;40484;50.198;19.576;2023-02-26T08:27:56;100955.59;;;2.78;48.93
54588;BME280;40484;50.198;19.576;2023-02-26T08:32:58;100963.30;;;3.00;47.76
54588;BME280;40484;50.198;19.576;2023-02-26T08:38:00;100970.55;;;3.28;47.46
54588;BME280;40484;50.198;19.576;2023-02-26T08:43:01;100969.73;;;3.21;47.02
54588;BME280;40484;50.198;19.576;2023-02-26T08:48:04;100983.97;;;3.36;46.01
54588;BME280;40484;50.198;19.576;2023-02-26T08:53:05;101000.53;;;3.21;46.67
54588;BME280;40484;50.198;19.576;2023-02-26T08:58:07;101000.30;;;3.80;46.50
54588;BME280;40484;50.198;19.576;2023-02-26T09:03:09;101016.42;;;4.03;45.94
54588;BME280;40484;50.198;19.576;2023-02-26T09:08:10;101032.61;;;3.68;46.78
54588;BME280;40484;50.198;19.576;2023-02-26T09:13:14;101039.83;;;3.96;46.43
54588;BME280;40484;50.198;19.576;2023-02-26T09:18:15;101040.66;;;3.96;45.63
54588;BME280;40484;50.198;19.576;2023-02-26T09:23:17;101041.13;;;4.19;44.74
54588;BME280;40484;50.198;19.576;2023-02-26T09:28:44;101066.84;;;3.91;44.37
54588;BME280;40484;50.198;19.576;2023-02-26T09:33:46;101068.88;;;3.64;47.01
54588;BME280;40484;50.198;19.576;2023-02-26T09:38:47;101093.80;;;3.28;47.86
54588;BME280;40484;50.198;19.576;2023-02-26T09:43:55;101102.08;;;3.35;48.30
54588;BME280;40484;50.198;19.576;2023-02-26T09:49:02;101101.59;;;3.52;48.25
54588;BME280;40484;50.198;19.576;2023-02-26T09:54:00;101105.63;;;3.81;47.77
54588;BME280;40484;50.198;19.576;2023-02-26T09:59:03;101103.30;;;3.73;47.82
54588;BME280;40484;50.198;19.576;2023-02-26T10:04:27;101112.38;;;3.49;47.77
54588;BME280;40484;50.198;19.576;2023-02-26T10:14:54;101111.47;;;3.53;47.40
54588;BME280;40484;50.198;19.576;2023-02-26T10:23:31;101125.13;;;4.00;48.27
54588;BME280;40484;50.198;19.576;2023-02-26T10:28:47;101140.84;;;3.58;50.85
54588;BME280;40484;50.198;19.576;2023-02-26T10:33:55;101157.16;;;2.95;53.48
54588;BME280;40484;50.198;19.576;2023-02-26T10:38:59;101168.45;;;2.50;54.83
54588;BME280;40484;50.198;19.576;2023-02-26T10:44:04;101176.38;;;2.59;54.24
54588;BME280;40484;50.198;19.576;2023-02-26T10:49:24;101189.05;;;3.08;53.04
54588;BME280;40484;50.198;19.576;2023-02-26T10:54:36;101188.12;;;3.65;50.75
54588;BME280;40484;50.198;19.576;2023-02-26T11:00:03;101185.61;;;3.94;49.21
54588;BME280;40484;50.198;19.576;2023-02-26T11:05:14;101189.92;;;3.88;46.28
54588;BME280;40484;50.198;19.576;2023-02-26T11:10:18;101184.18;;;4.14;46.21
54588;BME280;40484;50.198;19.576;2023-02-26T11:15:21;101195.55;;;4.49;46.97
54588;BME280;40484;50.198;19.576;2023-02-26T11:20:40;101189.66;;;4.66;46.26
54588;BME280;40484;50.198;19.576;2023-02-26T11:25:41;101189.19;;;4.50;45.80
54588;BME280;40484;50.198;19.576;2023-02-26T11:30:45;101200.20;;;4.82;46.04
54588;BME280;40484;50.198;19.576;2023-02-26T11:35:49;101210.98;;;4.83;43.71
54588;BME280;40484;50.198;19.576;2023-02-26T11:40:54;101216.19;;;4.80;42.64
54588;BME280;40484;50.198;19.576;2023-02-26T11:45:57;101225.45;;;5.15;42.83
54588;BME280;40484;50.198;19.576;2023-02-26T11:51:01;101239.78;;;4.97;43.32
54588;BME280;40484;50.198;19.576;2023-02-26T11:56:09;101248.54;;;5.15;44.01
54588;BME280;40484;50.198;19.576;2023-02-26T12:01:11;101251.41;;;4.93;44.52
54588;BME280;40484;50.198;19.576;2023-02-26T12:06:38;101257.54;;;5.14;44.47
54588;BME280;40484;50.198;19.576;2023-02-26T12:11:53;101269.12;;;5.59;44.86
54588;BME280;40484;50.198;19.576;2023-02-26T12:17:03;101274.96;;;5.77;43.14
54588;BME280;40484;50.198;19.576;2023-02-26T12:22:18;101272.20;;;5.29;44.11
54588;BME280;40484;50.198;19.576;2023-02-26T12:32:34;101291.64;;;4.68;45.97
54588;BME280;40484;50.198;19.576;2023-02-26T12:37:43;101303.34;;;3.85;49.00
54588;BME280;40484;50.198;19.576;2023-02-26T12:43:10;101310.60;;;3.29;51.71
54588;BME280;40484;50.198;19.576;2023-02-26T12:49:00;101319.28;;;3.31;52.11
54588;BME280;40484;50.198;19.576;2023-02-26T12:59:48;101322.75;;;3.70;50.83
54588;BME280;40484;50.198;19.576;2023-02-26T13:04:54;101341.55;;;3.78;50.60
54588;BME280;40484;50.198;19.576;2023-02-26T13:10:02;101344.85;;;4.27;49.42
54588;BME280;40484;50.198;19.576;2023-02-26T13:21:05;101360.11;;;4.52;46.82
54588;BME280;40484;50.198;19.576;2023-02-26T13:26:06;101367.63;;;4.24;46.43
54588;BME280;40484;50.198;19.576;2023-02-26T13:36:25;101391.20;;;4.28;45.73
54588;BME280;40484;50.198;19.576;2023-02-26T13:41:40;101404.82;;;4.36;44.28
54588;BME280;40484;50.198;19.576;2023-02-26T13:52:25;101411.52;;;4.83;43.53
54588;BME280;40484;50.198;19.576;2023-02-26T13:57:52;101419.83;;;4.98;42.69
54588;BME280;40484;50.198;19.576;2023-02-26T14:03:09;101422.03;;;4.77;42.26
54588;BME280;40484;50.198;19.576;2023-02-26T14:18:24;101440.63;;;4.71;42.81
54588;BME280;40484;50.198;19.576;2023-02-26T14:23:33;101440.20;;;4.65;42.46
54588;BME280;40484;50.198;19.576;2023-02-26T14:28:42;101440.86;;;4.60;42.65
54588;BME280;40484;50.198;19.576;2023-02-26T14:38:47;101459.85;;;5.18;42.50
54588;BME280;40484;50.198;19.576;2023-02-26T14:44:05;101463.38;;;4.69;42.89
54588;BME280;40484;50.198;19.576;2023-02-26T14:49:12;101465.33;;;4.36;43.69
54588;BME280;40484;50.198;19.576;2023-02-26T15:00:12;101472.74;;;4.72;43.76
54588;BME280;40484;50.198;19.576;2023-02-26T15:05:41;101481.27;;;4.68;43.85
54588;BME280;40484;50.198;19.576;2023-02-26T15:10:53;101491.83;;;4.64;44.20
54588;BME280;40484;50.198;19.576;2023-02-26T15:16:05;101510.53;;;4.46;44.54
54588;BME280;40484;50.198;19.576;2023-02-26T15:21:16;101520.45;;;4.40;45.15
54588;BME280;40484;50.198;19.576;2023-02-26T15:26:46;101532.59;;;4.52;45.27
54588;BME280;40484;50.198;19.576;2023-02-26T15:31:58;101540.74;;;4.15;46.14
54588;BME280;40484;50.198;19.576;2023-02-26T15:37:03;101538.30;;;4.11;46.46
54588;BME280;40484;50.198;19.576;2023-02-26T15:42:04;101546.42;;;4.36;46.42
54588;BME280;40484;50.198;19.576;2023-02-26T15:47:06;101541.91;;;4.14;46.74
54588;BME280;40484;50.198;19.576;2023-02-26T15:52:11;101540.66;;;3.97;46.94
54588;BME280;40484;50.198;19.576;2023-02-26T15:57:13;101547.00;;;3.96;46.47
54588;BME280;40484;50.198;19.576;2023-02-26T16:02:20;101567.54;;;3.63;47.20
54588;BME280;40484;50.198;19.576;2023-02-26T16:07:22;101581.43;;;3.51;47.61
54588;BME280;40484;50.198;19.576;2023-02-26T16:12:30;101585.21;;;3.74;47.32
54588;BME280;40484;50.198;19.576;2023-02-26T16:17:32;101601.00;;;3.99;47.33
54588;BME280;40484;50.198;19.576;2023-02-26T16:22:36;101613.58;;;3.74;47.72
54588;BME280;40484;50.198;19.576;2023-02-26T16:27:37;101630.71;;;3.80;47.72
54588;BME280;40484;50.198;19.576;2023-02-26T16:32:41;101639.57;;;4.07;47.47
54588;BME280;40484;50.198;19.576;2023-02-26T16:37:44;101644.96;;;4.13;47.31
54588;BME280;40484;50.198;19.576;2023-02-26T16:48:51;101646.87;;;4.42;46.89
54588;BME280;40484;50.198;19.576;2023-02-26T16:53:53;101650.24;;;4.17;47.17
54588;BME280;40484;50.198;19.576;2023-02-26T16:59:01;101649.70;;;4.30;47.13
54588;BME280;40484;50.198;19.576;2023-02-26T17:04:02;101663.19;;;4.54;46.77
54588;BME280;40484;50.198;19.576;2023-02-26T17:09:05;101655.67;;;4.51;46.41
54588;BME280;40484;50.198;19.576;2023-02-26T17:14:22;101654.44;;;4.80;46.36
54588;BME280;40484;50.198;19.576;2023-02-26T17:19:24;101673.53;;;5.01;45.96
54588;BME280;40484;50.198;19.576;2023-02-26T17:24:31;101681.79;;;5.07;45.22
54588;BME280;40484;50.198;19.576;2023-02-26T17:29:37;101690.34;;;5.09;45.21
54588;BME280;40484;50.198;19.576;2023-02-26T17:35:04;101704.23;;;5.12;44.96
54588;BME280;40484;50.198;19.576;2023-02-26T17:40:18;101717.10;;;4.97;44.78
54588;BME280;40484;50.198;19.576;2023-02-26T17:45:17;101710.70;;;5.02;44.90
54588;BME280;40484;50.198;19.576;2023-02-26T17:55:26;101703.25;;;5.36;44.57
54588;BME280;40484;50.198;19.576;2023-02-26T18:00:28;101704.27;;;5.36;44.52
54588;BME280;40484;50.198;19.576;2023-02-26T18:05:30;101713.63;;;5.21;44.63
54588;BME280;40484;50.198;19.576;2023-02-26T18:10:33;101731.07;;;5.14;44.58
54588;BME280;40484;50.198;19.576;2023-02-26T18:15:35;101746.13;;;5.19;44.56
54588;BME280;40484;50.198;19.576;2023-02-26T18:20:37;101743.02;;;5.25;44.23
54588;BME280;40484;50.198;19.576;2023-02-26T18:25:39;101736.79;;;5.41;43.92
54588;BME280;40484;50.198;19.576;2023-02-26T18:30:41;101740.22;;;5.51;44.05
54588;BME280;40484;50.198;19.576;2023-02-26T18:35:46;101748.05;;;5.50;43.93
54588;BME280;40484;50.198;19.576;2023-02-26T18:40:48;101760.64;;;5.27;44.04
54588;BME280;40484;50.198;19.576;2023-02-26T18:45:51;101756.63;;;5.36;44.21
54588;BME280;40484;50.198;19.576;2023-02-26T18:50:52;101760.30;;;5.41;44.08
54588;BME280;40484;50.198;19.576;2023-02-26T18:55:55;101772.27;;;5.48;44.10
54588;BME280;40484;50.198;19.576;2023-02-26T19:01:23;101792.68;;;5.53;44.05
54588;BME280;40484;50.198;19.576;2023-02-26T19:06:25;101799.89;;;5.47;44.01
54588;BME280;40484;50.198;19.576;2023-02-26T19:11:26;101801.26;;;5.22;44.22
54588;BME280;40484;50.198;19.576;2023-02-26T19:16:28;101794.47;;;5.06;44.50
54588;BME280;40484;50.198;19.576;2023-02-26T19:21:32;101803.41;;;5.19;44.46
54588;BME280;40484;50.198;19.576;2023-02-26T19:26:39;101806.35;;;5.15;44.67
54588;BME280;40484;50.198;19.576;2023-02-26T19:31:41;101808.97;;;5.24;44.64
54588;BME280;40484;50.198;19.576;2023-02-26T19:36:43;101815.22;;;5.10;44.73
54588;BME280;40484;50.198;19.576;2023-02-26T19:41:47;101817.18;;;5.07;45.09
54588;BME280;40484;50.198;19.576;2023-02-26T19:46:50;101817.23;;;5.30;45.07
54588;BME280;40484;50.198;19.576;2023-02-26T19:52:04;101829.42;;;5.31;44.85
54588;BME280;40484;50.198;19.576;2023-02-26T19:57:26;101829.15;;;4.81;45.43
54588;BME280;40484;50.198;19.576;2023-02-26T20:02:28;101844.08;;;4.57;45.96
54588;BME280;40484;50.198;19.576;2023-02-26T20:07:29;101848.15;;;4.67;46.08
54588;BME280;40484;50.198;19.576;2023-02-26T20:12:57;101851.89;;;4.88;45.96
54588;BME280;40484;50.198;19.576;2023-02-26T20:17:58;101854.95;;;4.88;46.02
54588;BME280;40484;50.198;19.576;2023-02-26T20:23:00;101865.06;;;4.77;46.19
54588;BME280;40484;50.198;19.576;2023-02-26T20:28:03;101874.88;;;4.76;46.22
54588;BME280;40484;50.198;19.576;2023-02-26T20:33:04;101868.27;;;4.86;46.37
54588;BME280;40484;50.198;19.576;2023-02-26T20:38:06;101861.99;;;4.88;46.17
54588;BME280;40484;50.198;19.576;2023-02-26T20:43:08;101878.09;;;4.79;46.47
54588;BME280;40484;50.198;19.576;2023-02-26T20:48:09;101870.88;;;4.79;46.43
54588;BME280;40484;50.198;19.576;2023-02-26T20:53:11;101878.80;;;4.36;47.06
54588;BME280;40484;50.198;19.576;2023-02-26T20:58:12;101891.63;;;4.47;47.09
54588;BME280;40484;50.198;19.576;2023-02-26T21:03:14;101899.72;;;4.39;47.32
54588;BME280;40484;50.198;19.576;2023-02-26T21:08:16;101898.18;;;4.41;47.41
54588;BME280;40484;50.198;19.576;2023-02-26T21:13:18;101886.97;;;4.34;47.52
54588;BME280;40484;50.198;19.576;2023-02-26T21:18:20;101895.27;;;4.12;47.87
54588;BME280;40484;50.198;19.576;2023-02-26T21:23:21;101891.55;;;4.15;48.01
54588;BME280;40484;50.198;19.576;2023-02-26T21:28:23;101894.30;;;4.03;48.30
54588;BME280;40484;50.198;19.576;2023-02-26T21:33:24;101898.57;;;3.97;48.55
54588;BME280;40484;50.198;19.576;2023-02-26T21:38:26;101899.73;;;3.81;48.92
54588;BME280;40484;50.198;19.576;2023-02-26T21:43:27;101906.80;;;3.92;48.86
54588;BME280;40484;50.198;19.576;2023-02-26T21:48:29;101911.59;;;4.22;48.55
54588;BME280;40484;50.198;19.576;2023-02-26T21:53:30;101920.09;;;4.48;48.32
54588;BME280;40484;50.198;19.576;2023-02-26T21:58:32;101910.22;;;4.43;47.97
54588;BME280;40484;50.198;19.576;2023-02-26T22:03:58;101923.23;;;4.11;48.66
54588;BME280;40484;50.198;19.576;2023-02-26T22:09:01;101928.27;;;3.76;49.49
54588;BME280;40484;50.198;19.576;2023-02-26T22:14:02;101925.88;;;3.50;50.11
54588;BME280;40484;50.198;19.576;2023-02-26T22:19:04;101933.84;;;3.44;50.64
54588;BME280;40484;50.198;19.576;2023-02-26T22:24:06;101944.91;;;3.49;50.84
54588;BME280;40484;50.198;19.576;2023-02-26T22:29:08;101956.07;;;3.72;50.56
54588;BME280;40484;50.198;19.576;2023-02-26T22:34:09;101960.60;;;3.77;50.45
54588;BME280;40484;50.198;19.576;2023-02-26T22:39:11;101962.63;;;3.85;50.21
